sensor_id;sensor_type;location;lat;lon;timestamp;pressure;altitude;pressure_sealevel;temperature;humidity
45275;BME280;31019;43.780;25.948;2023-02-28T00:00:37;102046.84;;;4.39;100.00
45275;BME280;31019;43.780;25.948;2023-02-28T00:03:04;102048.34;;;4.72;100.00
45275;BME280;31019;43.780;25.948;2023-02-28T00:05:31;102054.56;;;4.31;100.00
45275;BME280;31019;43.780;25.948;2023-02-28T00:07:58;102061.91;;;4.27;100.00
45275;BME280;31019;43.780;25.948;2023-02-28T00:10:27;102087.38;;;4.27;100.00
45275;BME280;31019;43.780;25.948;2023-02-28T00:12:55;102080.03;;;4.30;100.00
45275;BME280;31019;43.780;25.948;2023-02-28T00:15:23;102081.25;;;4.26;100.00
45275;BME280;31019;43.780;25.948;2023-02-28T00:17:51;102077.13;;;4.24;100.00
45275;BME280;31019;43.780;25.948;2023-02-28T00:20:19;102082.16;;;4.36;100.00
45275;BME280;31019;43.780;25.948;2023-02-28T00:22:47;102086.97;;;4.31;100.00
45275;BME280;31019;43.780;25.948;2023-02-28T00:25:17;102078.69;;;4.36;100.00
45275;BME280;31019;43.780;25.948;2023-02-28T00:27:45;102069.81;;;4.37;100.00
45275;BME280;31019;43.780;25.948;2023-02-28T00:30:13;102072.03;;;4.11;100.00
45275;BME280;31019;43.780;25.948;2023-02-28T00:32:40;102073.09;;;3.99;100.00
45275;BME280;31019;43.780;25.948;2023-02-28T00:35:09;102078.44;;;3.87;100.00
45275;BME280;31019;43.780;25.948;2023-02-28T00:37:36;102083.59;;;3.99;100.00
45275;BME280;31019;43.780;25.948;2023-02-28T00:40:05;102082.31;;;3.93;100.00
45275;BME280;31019;43.780;25.948;2023-02-28T00:42:32;102094.31;;;4.07;100.00
45275;BME280;31019;43.780;25.948;2023-02-28T00:44:59;102097.66;;;3.88;100.00
45275;BME280;31019;43.780;25.948;2023-02-28T00:47:26;102096.06;;;3.97;100.00
45275;BME280;31019;43.780;25.948;2023-02-28T00:49:52;102098.44;;;4.00;100.00
45275;BME280;31019;43.780;25.948;2023-02-28T00:52:20;102108.59;;;3.93;100.00
45275;BME280;31019;43.780;25.948;2023-02-28T00:54:47;102098.50;;;3.88;100.00
45275;BME280;31019;43.780;25.948;2023-02-28T00:57:14;102099.19;;;4.11;100.00
45275;BME280;31019;43.780;25.948;2023-02-28T00:59:41;102110.97;;;3.96;100.00
45275;BME280;31019;43.780;25.948;2023-02-28T01:02:08;102110.41;;;3.93;100.00
45275;BME280;31019;43.780;25.948;2023-02-28T01:04:34;102102.91;;;3.88;100.00
45275;BME280;31019;43.780;25.948;2023-02-28T01:07:01;102111.50;;;4.11;100.00
45275;BME280;31019;43.780;25.948;2023-02-28T01:09:29;102115.75;;;3.81;100.00
45275;BME280;31019;43.780;25.948;2023-02-28T01:11:56;102110.75;;;3.78;100.00
45275;BME280;31019;43.780;25.948;2023-02-28T01:14:23;102101.75;;;3.81;100.00
45275;BME280;31019;43.780;25.948;2023-02-28T01:16:50;102095.38;;;3.62;100.00
45275;BME280;31019;43.780;25.948;2023-02-28T01:19:17;102111.75;;;3.87;100.00
45275;BME280;31019;43.780;25.948;2023-02-28T01:21:43;102112.72;;;3.86;100.00
45275;BME280;31019;43.780;25.948;2023-02-28T01:24:10;102129.53;;;3.62;100.00
45275;BME280;31019;43.780;25.948;2023-02-28T01:26:38;102123.50;;;3.83;100.00
45275;BME280;31019;43.780;25.948;2023-02-28T01:29:05;102118.94;;;3.85;100.00
45275;BME280;31019;43.780;25.948;2023-02-28T01:31:32;102113.44;;;3.88;100.00
45275;BME280;31019;43.780;25.948;2023-02-28T01:33:59;102124.06;;;3.86;100.00
45275;BME280;31019;43.780;25.948;2023-02-28T01:36:25;102121.31;;;4.09;100.00
45275;BME280;31019;43.780;25.948;2023-02-28T01:38:52;102129.78;;;3.92;100.00
45275;BME280;31019;43.780;25.948;2023-02-28T01:41:21;102141.66;;;4.07;100.00
45275;BME280;31019;43.780;25.948;2023-02-28T01:44:02;102146.53;;;4.11;100.00
45275;BME280;31019;43.780;25.948;2023-02-28T01:46:30;102144.38;;;4.05;100.00
45275;BME280;31019;43.780;25.948;2023-02-28T01:49:02;102154.78;;;4.07;100.00
45275;BME280;31019;43.780;25.948;2023-02-28T01:51:35;102169.75;;;4.06;100.00
45275;BME280;31019;43.780;25.948;2023-02-28T01:54:06;102177.56;;;4.18;100.00
45275;BME280;31019;43.780;25.948;2023-02-28T01:56:43;102181.41;;;4.13;100.00
45275;BME280;31019;43.780;25.948;2023-02-28T01:59:14;102162.97;;;3.93;100.00
45275;BME280;31019;43.780;25.948;2023-02-28T02:01:45;102164.28;;;4.19;100.00
45275;BME280;31019;43.780;25.948;2023-02-28T02:04:12;102148.44;;;4.09;100.00
45275;BME280;31019;43.780;25.948;2023-02-28T02:06:42;102157.53;;;4.05;100.00
45275;BME280;31019;43.780;25.948;2023-02-28T02:09:09;102140.31;;;4.12;100.00
45275;BME280;31019;43.780;25.948;2023-02-28T02:11:36;102130.34;;;3.95;100.00
45275;BME280;31019;43.780;25.948;2023-02-28T02:14:26;102132.09;;;4.06;100.00
45275;BME280;31019;43.780;25.948;2023-02-28T02:17:20;102124.84;;;3.98;100.00
45275;BME280;31019;43.780;25.948;2023-02-28T02:20:16;102132.66;;;3.88;100.00
45275;BME280;31019;43.780;25.948;2023-02-28T02:23:20;102124.53;;;3.92;100.00
45275;BME280;31019;43.780;25.948;2023-02-28T02:25:55;102127.25;;;3.69;100.00
45275;BME280;31019;43.780;25.948;2023-02-28T02:31:38;102122.94;;;4.00;100.00
45275;BME280;31019;43.780;25.948;2023-02-28T02:34:30;102131.88;;;3.77;100.00
45275;BME280;31019;43.780;25.948;2023-02-28T02:37:11;102135.53;;;4.48;100.00
45275;BME280;31019;43.780;25.948;2023-02-28T02:39:47;102152.97;;;3.86;100.00
45275;BME280;31019;43.780;25.948;2023-02-28T02:42:23;102154.78;;;3.86;100.00
45275;BME280;31019;43.780;25.948;2023-02-28T02:44:56;102146.59;;;4.21;100.00
45275;BME280;31019;43.780;25.948;2023-02-28T02:47:28;102154.00;;;3.74;100.00
45275;BME280;31019;43.780;25.948;2023-02-28T02:49:59;102158.06;;;3.78;100.00
45275;BME280;31019;43.780;25.948;2023-02-28T02:52:33;102164.66;;;3.73;100.00
45275;BME280;31019;43.780;25.948;2023-02-28T02:55:02;102160.81;;;3.65;100.00
45275;BME280;31019;43.780;25.948;2023-02-28T02:57:33;102166.03;;;4.30;100.00
45275;BME280;31019;43.780;25.948;2023-02-28T03:00:02;102176.31;;;3.80;100.00
45275;BME280;31019;43.780;25.948;2023-02-28T03:02:31;102178.63;;;3.73;100.00
45275;BME280;31019;43.780;25.948;2023-02-28T03:05:03;102182.56;;;4.00;100.00
45275;BME280;31019;43.780;25.948;2023-02-28T03:07:31;102177.22;;;5.24;100.00
45275;BME280;31019;43.780;25.948;2023-02-28T03:09:57;102184.38;;;3.67;100.00
45275;BME280;31019;43.780;25.948;2023-02-28T03:12:40;102190.03;;;3.83;100.00
45275;BME280;31019;43.780;25.948;2023-02-28T03:15:13;102187.16;;;3.54;100.00
45275;BME280;31019;43.780;25.948;2023-02-28T03:18:00;102181.28;;;3.62;100.00
45275;BME280;31019;43.780;25.948;2023-02-28T03:20:38;102191.28;;;4.21;100.00
45275;BME280;31019;43.780;25.948;2023-02-28T03:23:14;102199.09;;;3.47;100.00
45275;BME280;31019;43.780;25.948;2023-02-28T03:25:54;102190.16;;;3.50;100.00
45275;BME280;31019;43.780;25.948;2023-02-28T03:28:29;102193.81;;;3.58;100.00
45275;BME280;31019;43.780;25.948;2023-02-28T03:30:59;102208.94;;;4.09;100.00
45275;BME280;31019;43.780;25.948;2023-02-28T03:33:30;102208.00;;;3.67;100.00
45275;BME280;31019;43.780;25.948;2023-02-28T03:36:04;102200.56;;;3.72;100.00
45275;BME280;31019;43.780;25.948;2023-02-28T03:38:34;102203.31;;;4.45;100.00
45275;BME280;31019;43.780;25.948;2023-02-28T03:41:06;102203.38;;;4.75;100.00
45275;BME280;31019;43.780;25.948;2023-02-28T03:43:38;102192.84;;;3.59;100.00
45275;BME280;31019;43.780;25.948;2023-02-28T03:46:10;102188.97;;;3.75;100.00
45275;BME280;31019;43.780;25.948;2023-02-28T03:48:42;102187.25;;;3.64;100.00
45275;BME280;31019;43.780;25.948;2023-02-28T03:51:15;102189.44;;;3.48;100.00
45275;BME280;31019;43.780;25.948;2023-02-28T03:53:46;102195.81;;;3.66;100.00
45275;BME280;31019;43.780;25.948;2023-02-28T03:56:17;102196.13;;;3.52;100.00
45275;BME280;31019;43.780;25.948;2023-02-28T03:58:49;102206.56;;;3.63;100.00
45275;BME280;31019;43.780;25.948;2023-02-28T04:01:21;102204.69;;;3.54;100.00
45275;BME280;31019;43.780;25.948;2023-02-28T04:03:50;102208.09;;;3.77;100.00
45275;BME280;31019;43.780;25.948;2023-02-28T04:06:20;102202.63;;;3.68;100.00
45275;BME280;31019;43.780;25.948;2023-02-28T04:08:47;102201.72;;;3.47;100.00
45275;BME280;31019;43.780;25.948;2023-02-28T04:11:20;102204.19;;;3.60;100.00
45275;BME280;31019;43.780;25.948;2023-02-28T04:13:47;102207.47;;;3.30;100.00
45275;BME280;31019;43.780;25.948;2023-02-28T04:16:14;102200.78;;;4.54;100.00
45275;BME280;31019;43.780;25.948;2023-02-28T04:18:41;102187.44;;;3.29;100.00
45275;BME280;31019;43.780;25.948;2023-02-28T04:21:09;102188.84;;;3.33;100.00
45275;BME280;31019;43.780;25.948;2023-02-28T04:23:38;102191.53;;;3.65;100.00
45275;BME280;31019;43.780;25.948;2023-02-28T04:26:04;102189.44;;;3.48;100.00
45275;BME280;31019;43.780;25.948;2023-02-28T04:28:32;102187.63;;;4.85;100.00
45275;BME280;31019;43.780;25.948;2023-02-28T04:31:00;102181.13;;;3.96;100.00
45275;BME280;31019;43.780;25.948;2023-02-28T04:33:28;102166.34;;;3.62;100.00
45275;BME280;31019;43.780;25.948;2023-02-28T04:35:59;102172.47;;;3.84;100.00
45275;BME280;31019;43.780;25.948;2023-02-28T04:38:26;102169.59;;;3.55;100.00
45275;BME280;31019;43.780;25.948;2023-02-28T04:40:57;102183.44;;;3.57;100.00
45275;BME280;31019;43.780;25.948;2023-02-28T04:43:23;102188.16;;;3.42;100.00
45275;BME280;31019;43.780;25.948;2023-02-28T04:45:50;102193.09;;;3.56;100.00
45275;BME280;31019;43.780;25.948;2023-02-28T04:48:17;102189.66;;;3.88;100.00
45275;BME280;31019;43.780;25.948;2023-02-28T04:50:43;102180.78;;;4.73;100.00
45275;BME280;31019;43.780;25.948;2023-02-28T04:53:10;102175.50;;;4.00;100.00
45275;BME280;31019;43.780;25.948;2023-02-28T04:55:37;102190.06;;;3.72;100.00
45275;BME280;31019;43.780;25.948;2023-02-28T04:58:06;102191.63;;;3.31;100.00
45275;BME280;31019;43.780;25.948;2023-02-28T05:00:33;102190.28;;;3.80;100.00
45275;BME280;31019;43.780;25.948;2023-02-28T05:03:00;102194.00;;;3.23;100.00
45275;BME280;31019;43.780;25.948;2023-02-28T05:05:27;102197.56;;;3.88;100.00
45275;BME280;31019;43.780;25.948;2023-02-28T05:07:53;102209.03;;;4.50;100.00
45275;BME280;31019;43.780;25.948;2023-02-28T05:10:21;102196.88;;;3.31;100.00
45275;BME280;31019;43.780;25.948;2023-02-28T05:12:47;102198.81;;;3.73;100.00
45275;BME280;31019;43.780;25.948;2023-02-28T05:15:16;102197.88;;;3.95;100.00
45275;BME280;31019;43.780;25.948;2023-02-28T05:17:43;102196.31;;;3.60;100.00
45275;BME280;31019;43.780;25.948;2023-02-28T05:20:11;102188.16;;;4.79;100.00
45275;BME280;31019;43.780;25.948;2023-02-28T05:22:38;102202.84;;;3.77;100.00
45275;BME280;31019;43.780;25.948;2023-02-28T05:25:06;102219.78;;;3.40;100.00
45275;BME280;31019;43.780;25.948;2023-02-28T05:27:33;102217.06;;;3.19;100.00
45275;BME280;31019;43.780;25.948;2023-02-28T05:30:00;102223.38;;;4.15;100.00
45275;BME280;31019;43.780;25.948;2023-02-28T05:32:30;102226.41;;;3.67;100.00
45275;BME280;31019;43.780;25.948;2023-02-28T05:34:56;102235.59;;;3.73;100.00
45275;BME280;31019;43.780;25.948;2023-02-28T05:37:23;102236.28;;;3.75;100.00
45275;BME280;31019;43.780;25.948;2023-02-28T05:39:50;102229.69;;;3.37;100.00
45275;BME280;31019;43.780;25.948;2023-02-28T05:42:16;102228.00;;;3.47;100.00
45275;BME280;31019;43.780;25.948;2023-02-28T05:44:43;102239.47;;;3.46;100.00
45275;BME280;31019;43.780;25.948;2023-02-28T05:47:10;102242.84;;;3.26;100.00
45275;BME280;31019;43.780;25.948;2023-02-28T05:49:39;102246.38;;;3.47;100.00
45275;BME280;31019;43.780;25.948;2023-02-28T05:52:06;102257.38;;;3.96;100.00
45275;BME280;31019;43.780;25.948;2023-02-28T05:54:32;102254.91;;;3.39;100.00
45275;BME280;31019;43.780;25.948;2023-02-28T05:56:59;102262.16;;;3.47;100.00
45275;BME280;31019;43.780;25.948;2023-02-28T05:59:26;102267.50;;;3.68;100.00
45275;BME280;31019;43.780;25.948;2023-02-28T06:01:53;102274.47;;;3.35;100.00
45275;BME280;31019;43.780;25.948;2023-02-28T06:04:20;102284.19;;;4.22;100.00
45275;BME280;31019;43.780;25.948;2023-02-28T06:06:49;102282.16;;;3.82;100.00
45275;BME280;31019;43.780;25.948;2023-02-28T06:09:17;102283.19;;;4.76;100.00
45275;BME280;31019;43.780;25.948;2023-02-28T06:11:44;102284.31;;;4.41;100.00
45275;BME280;31019;43.780;25.948;2023-02-28T06:14:14;102282.09;;;4.36;100.00
45275;BME280;31019;43.780;25.948;2023-02-28T06:16:42;102281.09;;;3.73;100.00
45275;BME280;31019;43.780;25.948;2023-02-28T06:19:10;102268.47;;;3.44;100.00
45275;BME280;31019;43.780;25.948;2023-02-28T06:21:37;102268.31;;;3.68;100.00
45275;BME280;31019;43.780;25.948;2023-02-28T06:24:05;102267.66;;;6.42;100.00
45275;BME280;31019;43.780;25.948;2023-02-28T06:26:32;102279.88;;;4.21;100.00
45275;BME280;31019;43.780;25.948;2023-02-28T06:28:59;102279.22;;;3.96;100.00
45275;BME280;31019;43.780;25.948;2023-02-28T06:31:26;102274.53;;;3.67;100.00
45275;BME280;31019;43.780;25.948;2023-02-28T06:33:54;102265.41;;;3.94;100.00
45275;BME280;31019;43.780;25.948;2023-02-28T06:36:21;102262.94;;;4.13;100.00
45275;BME280;31019;43.780;25.948;2023-02-28T06:38:48;102255.53;;;3.75;100.00
45275;BME280;31019;43.780;25.948;2023-02-28T06:41:21;102267.50;;;3.68;100.00
45275;BME280;31019;43.780;25.948;2023-02-28T06:43:49;102272.75;;;4.32;100.00
45275;BME280;31019;43.780;25.948;2023-02-28T06:46:16;102265.22;;;4.07;100.00
45275;BME280;31019;43.780;25.948;2023-02-28T06:48:43;102272.53;;;4.03;100.00
45275;BME280;31019;43.780;25.948;2023-02-28T06:51:11;102275.47;;;4.42;100.00
45275;BME280;31019;43.780;25.948;2023-02-28T06:53:40;102268.50;;;5.04;100.00
45275;BME280;31019;43.780;25.948;2023-02-28T06:56:08;102269.84;;;5.29;100.00
45275;BME280;31019;43.780;25.948;2023-02-28T06:58:37;102259.34;;;4.77;100.00
45275;BME280;31019;43.780;25.948;2023-02-28T07:01:04;102255.78;;;4.36;100.00
45275;BME280;31019;43.780;25.948;2023-02-28T07:03:32;102268.31;;;3.68;100.00
45275;BME280;31019;43.780;25.948;2023-02-28T07:05:59;102269.78;;;4.58;100.00
45275;BME280;31019;43.780;25.948;2023-02-28T07:08:26;102272.75;;;4.11;100.00
45275;BME280;31019;43.780;25.948;2023-02-28T07:10:54;102271.66;;;3.82;100.00
45275;BME280;31019;43.780;25.948;2023-02-28T07:13:23;102270.66;;;3.94;100.00
45275;BME280;31019;43.780;25.948;2023-02-28T07:15:55;102277.16;;;3.79;100.00
45275;BME280;31019;43.780;25.948;2023-02-28T07:18:22;102280.03;;;3.64;100.00
45275;BME280;31019;43.780;25.948;2023-02-28T07:20:49;102268.06;;;3.72;100.00
45275;BME280;31019;43.780;25.948;2023-02-28T07:23:15;102269.63;;;3.63;100.00
45275;BME280;31019;43.780;25.948;2023-02-28T07:25:42;102277.41;;;3.64;100.00
45275;BME280;31019;43.780;25.948;2023-02-28T07:28:09;102280.72;;;3.78;100.00
45275;BME280;31019;43.780;25.948;2023-02-28T07:30:35;102291.84;;;4.13;100.00
45275;BME280;31019;43.780;25.948;2023-02-28T07:33:04;102284.94;;;4.12;100.00
45275;BME280;31019;43.780;25.948;2023-02-28T07:35:31;102274.84;;;3.97;100.00
45275;BME280;31019;43.780;25.948;2023-02-28T07:37:58;102277.28;;;4.09;100.00
45275;BME280;31019;43.780;25.948;2023-02-28T07:40:25;102281.53;;;3.89;100.00
45275;BME280;31019;43.780;25.948;2023-02-28T07:42:52;102283.34;;;4.21;100.00
45275;BME280;31019;43.780;25.948;2023-02-28T07:45:19;102280.03;;;5.53;100.00
45275;BME280;31019;43.780;25.948;2023-02-28T07:47:46;102290.50;;;4.51;100.00
45275;BME280;31019;43.780;25.948;2023-02-28T07:50:15;102298.31;;;4.42;100.00
45275;BME280;31019;43.780;25.948;2023-02-28T07:52:42;102295.22;;;4.04;100.00
45275;BME280;31019;43.780;25.948;2023-02-28T07:55:09;102285.38;;;3.85;100.00
45275;BME280;31019;43.780;25.948;2023-02-28T07:57:36;102294.91;;;3.98;100.00
45275;BME280;31019;43.780;25.948;2023-02-28T08:00:04;102289.19;;;4.25;100.00
45275;BME280;31019;43.780;25.948;2023-02-28T08:02:32;102282.91;;;5.40;100.00
45275;BME280;31019;43.780;25.948;2023-02-28T08:05:00;102284.38;;;4.93;100.00
45275;BME280;31019;43.780;25.948;2023-02-28T08:07:28;102294.13;;;4.18;100.00
45275;BME280;31019;43.780;25.948;2023-02-28T08:09:55;102292.56;;;4.16;100.00
45275;BME280;31019;43.780;25.948;2023-02-28T08:12:21;102288.59;;;4.21;100.00
45275;BME280;31019;43.780;25.948;2023-02-28T08:14:49;102292.09;;;4.43;100.00
45275;BME280;31019;43.780;25.948;2023-02-28T08:17:16;102299.88;;;5.17;100.00
45275;BME280;31019;43.780;25.948;2023-02-28T08:19:45;102301.28;;;4.90;100.00
45275;BME280;31019;43.780;25.948;2023-02-28T08:22:11;102298.47;;;4.29;100.00
45275;BME280;31019;43.780;25.948;2023-02-28T08:24:41;102298.56;;;4.18;100.00
45275;BME280;31019;43.780;25.948;2023-02-28T08:27:08;102295.50;;;4.33;100.00
45275;BME280;31019;43.780;25.948;2023-02-28T08:29:36;102293.44;;;5.31;100.00
45275;BME280;31019;43.780;25.948;2023-02-28T08:32:04;102290.16;;;4.24;100.00
45275;BME280;31019;43.780;25.948;2023-02-28T08:34:31;102300.41;;;4.48;100.00
45275;BME280;31019;43.780;25.948;2023-02-28T08:36:57;102301.69;;;4.32;100.00
45275;BME280;31019;43.780;25.948;2023-02-28T08:39:24;102296.47;;;4.74;100.00
45275;BME280;31019;43.780;25.948;2023-02-28T08:41:52;102297.75;;;4.80;100.00
45275;BME280;31019;43.780;25.948;2023-02-28T08:44:19;102293.94;;;5.15;100.00
45275;BME280;31019;43.780;25.948;2023-02-28T08:46:46;102296.81;;;4.60;100.00
45275;BME280;31019;43.780;25.948;2023-02-28T08:49:12;102290.22;;;4.96;100.00
45275;BME280;31019;43.780;25.948;2023-02-28T08:51:39;102285.50;;;4.48;100.00
45275;BME280;31019;43.780;25.948;2023-02-28T08:54:06;102291.97;;;4.65;100.00
45275;BME280;31019;43.780;25.948;2023-02-28T08:56:32;102289.66;;;4.30;100.00
45275;BME280;31019;43.780;25.948;2023-02-28T08:59:00;102284.81;;;4.35;100.00
45275;BME280;31019;43.780;25.948;2023-02-28T09:01:28;102282.94;;;4.58;100.00
45275;BME280;31019;43.780;25.948;2023-02-28T09:03:56;102280.78;;;5.24;100.00
45275;BME280;31019;43.780;25.948;2023-02-28T09:06:25;102286.66;;;4.76;100.00
45275;BME280;31019;43.780;25.948;2023-02-28T09:08:52;102285.94;;;4.53;100.00
45275;BME280;31019;43.780;25.948;2023-02-28T09:11:19;102276.44;;;5.14;100.00
45275;BME280;31019;43.780;25.948;2023-02-28T09:13:46;102283.56;;;4.71;100.00
45275;BME280;31019;43.780;25.948;2023-02-28T09:16:15;102291.59;;;5.21;100.00
45275;BME280;31019;43.780;25.948;2023-02-28T09:18:42;102296.47;;;5.05;100.00
45275;BME280;31019;43.780;25.948;2023-02-28T09:21:11;102294.13;;;5.02;100.00
45275;BME280;31019;43.780;25.948;2023-02-28T09:23:39;102295.25;;;4.57;100.00
45275;BME280;31019;43.780;25.948;2023-02-28T09:26:07;102290.94;;;4.56;100.00
45275;BME280;31019;43.780;25.948;2023-02-28T09:28:34;102284.00;;;4.55;100.00
45275;BME280;31019;43.780;25.948;2023-02-28T09:31:00;102289.38;;;4.75;100.00
45275;BME280;31019;43.780;25.948;2023-02-28T09:33:31;102289.22;;;4.88;100.00
45275;BME280;31019;43.780;25.948;2023-02-28T09:36:00;102279.22;;;5.62;100.00
45275;BME280;31019;43.780;25.948;2023-02-28T09:38:29;102285.78;;;5.27;100.00
45275;BME280;31019;43.780;25.948;2023-02-28T09:40:57;102277.94;;;5.47;100.00
45275;BME280;31019;43.780;25.948;2023-02-28T09:43:26;102279.31;;;6.01;100.00
45275;BME280;31019;43.780;25.948;2023-02-28T09:45:58;102271.53;;;5.40;100.00
45275;BME280;31019;43.780;25.948;2023-02-28T09:48:31;102270.53;;;5.31;100.00
45275;BME280;31019;43.780;25.948;2023-02-28T09:51:03;102282.84;;;5.71;100.00
45275;BME280;31019;43.780;25.948;2023-02-28T09:53:32;102270.75;;;5.59;100.00
45275;BME280;31019;43.780;25.948;2023-02-28T09:56:03;102263.50;;;6.11;100.00
45275;BME280;31019;43.780;25.948;2023-02-28T09:58:34;102267.59;;;5.15;100.00
45275;BME280;31019;43.780;25.948;2023-02-28T10:01:09;102265.94;;;5.83;100.00
45275;BME280;31019;43.780;25.948;2023-02-28T10:03:43;102273.91;;;5.02;100.00
45275;BME280;31019;43.780;25.948;2023-02-28T10:06:16;102268.09;;;5.49;100.00
45275;BME280;31019;43.780;25.948;2023-02-28T10:08:50;102277.75;;;7.23;100.00
45275;BME280;31019;43.780;25.948;2023-02-28T10:11:19;102280.09;;;5.32;100.00
45275;BME280;31019;43.780;25.948;2023-02-28T10:13:53;102283.28;;;5.26;100.00
45275;BME280;31019;43.780;25.948;2023-02-28T10:16:29;102287.19;;;5.01;100.00
45275;BME280;31019;43.780;25.948;2023-02-28T10:19:03;102275.75;;;5.52;100.00
45275;BME280;31019;43.780;25.948;2023-02-28T10:21:35;102283.91;;;5.09;100.00
45275;BME280;31019;43.780;25.948;2023-02-28T10:24:04;102277.44;;;5.22;100.00
45275;BME280;31019;43.780;25.948;2023-02-28T10:26:32;102280.22;;;4.90;100.00
45275;BME280;31019;43.780;25.948;2023-02-28T10:28:59;102277.91;;;5.37;100.00
45275;BME280;31019;43.780;25.948;2023-02-28T10:31:28;102274.34;;;5.17;100.00
45275;BME280;31019;43.780;25.948;2023-02-28T10:33:55;102277.09;;;5.06;100.00
45275;BME280;31019;43.780;25.948;2023-02-28T10:36:23;102274.75;;;4.82;100.00
45275;BME280;31019;43.780;25.948;2023-02-28T10:38:50;102274.16;;;4.99;100.00
45275;BME280;31019;43.780;25.948;2023-02-28T10:41:27;102273.16;;;5.21;100.00
45275;BME280;31019;43.780;25.948;2023-02-28T10:44:12;102267.81;;;4.81;100.00
45275;BME280;31019;43.780;25.948;2023-02-28T10:46:40;102261.97;;;5.39;100.00
45275;BME280;31019;43.780;25.948;2023-02-28T10:49:14;102265.16;;;5.33;100.00
45275;BME280;31019;43.780;25.948;2023-02-28T10:51:42;102263.03;;;5.77;100.00
45275;BME280;31019;43.780;25.948;2023-02-28T10:54:17;102250.47;;;4.99;100.00
45275;BME280;31019;43.780;25.948;2023-02-28T10:56:44;102251.13;;;4.71;100.00
45275;BME280;31019;43.780;25.948;2023-02-28T10:59:28;102241.31;;;5.54;100.00
45275;BME280;31019;43.780;25.948;2023-02-28T11:01:55;102236.84;;;4.94;100.00
45275;BME280;31019;43.780;25.948;2023-02-28T11:04:33;102234.59;;;5.20;100.00
45275;BME280;31019;43.780;25.948;2023-02-28T11:07:05;102250.66;;;4.87;100.00
45275;BME280;31019;43.780;25.948;2023-02-28T11:09:34;102239.75;;;4.91;100.00
45275;BME280;31019;43.780;25.948;2023-02-28T11:12:02;102240.72;;;5.21;100.00
45275;BME280;31019;43.780;25.948;2023-02-28T11:14:33;102240.88;;;4.98;100.00
45275;BME280;31019;43.780;25.948;2023-02-28T11:17:14;102249.28;;;5.23;100.00
45275;BME280;31019;43.780;25.948;2023-02-28T11:19:45;102233.66;;;5.31;100.00
45275;BME280;31019;43.780;25.948;2023-02-28T11:22:19;102227.03;;;4.96;100.00
45275;BME280;31019;43.780;25.948;2023-02-28T11:24:49;102233.00;;;5.08;100.00
45275;BME280;31019;43.780;25.948;2023-02-28T11:27:47;102230.19;;;5.31;100.00
45275;BME280;31019;43.780;25.948;2023-02-28T11:30:32;102220.31;;;4.82;100.00
45275;BME280;31019;43.780;25.948;2023-02-28T11:33:00;102216.06;;;5.41;100.00
45275;BME280;31019;43.780;25.948;2023-02-28T11:35:30;102213.31;;;5.62;100.00
45275;BME280;31019;43.780;25.948;2023-02-28T11:37:58;102208.63;;;5.85;100.00
45275;BME280;31019;43.780;25.948;2023-02-28T11:40:31;102201.81;;;5.83;100.00
45275;BME280;31019;43.780;25.948;2023-02-28T11:43:08;102206.38;;;6.49;100.00
45275;BME280;31019;43.780;25.948;2023-02-28T11:45:58;102193.41;;;5.19;100.00
45275;BME280;31019;43.780;25.948;2023-02-28T11:48:34;102197.06;;;4.88;100.00
45275;BME280;31019;43.780;25.948;2023-02-28T11:51:10;102196.41;;;6.42;100.00
45275;BME280;31019;43.780;25.948;2023-02-28T11:53:55;102193.91;;;5.73;100.00
45275;BME280;31019;43.780;25.948;2023-02-28T11:56:33;102196.50;;;5.34;100.00
45275;BME280;31019;43.780;25.948;2023-02-28T11:59:13;102196.28;;;5.76;100.00
45275;BME280;31019;43.780;25.948;2023-02-28T12:02:08;102198.47;;;5.51;100.00
45275;BME280;31019;43.780;25.948;2023-02-28T12:04:52;102200.31;;;6.38;100.00
45275;BME280;31019;43.780;25.948;2023-02-28T12:07:25;102198.31;;;5.53;100.00
45275;BME280;31019;43.780;25.948;2023-02-28T12:10:06;102206.09;;;5.45;100.00
45275;BME280;31019;43.780;25.948;2023-02-28T12:12:45;102200.41;;;5.40;100.00
45275;BME280;31019;43.780;25.948;2023-02-28T12:15:24;102208.16;;;4.91;100.00
45275;BME280;31019;43.780;25.948;2023-02-28T12:18:14;102206.00;;;5.06;100.00
45275;BME280;31019;43.780;25.948;2023-02-28T12:20:49;102205.75;;;5.19;100.00
45275;BME280;31019;43.780;25.948;2023-02-28T12:23:31;102203.28;;;4.87;100.00
45275;BME280;31019;43.780;25.948;2023-02-28T12:26:11;102209.13;;;5.40;100.00
45275;BME280;31019;43.780;25.948;2023-02-28T12:28:43;102201.09;;;5.42;100.00
45275;BME280;31019;43.780;25.948;2023-02-28T12:31:17;102200.66;;;5.27;100.00
45275;BME280;31019;43.780;25.948;2023-02-28T12:33:45;102203.97;;;4.89;100.00
45275;BME280;31019;43.780;25.948;2023-02-28T12:36:16;102209.25;;;4.89;100.00
45275;BME280;31019;43.780;25.948;2023-02-28T12:38:49;102209.16;;;5.00;100.00
45275;BME280;31019;43.780;25.948;2023-02-28T12:41:24;102202.09;;;5.00;100.00
45275;BME280;31019;43.780;25.948;2023-02-28T12:43:58;102205.28;;;5.54;100.00
45275;BME280;31019;43.780;25.948;2023-02-28T12:46:30;102204.25;;;6.62;100.00
45275;BME280;31019;43.780;25.948;2023-02-28T12:49:01;102201.94;;;5.71;100.00
45275;BME280;31019;43.780;25.948;2023-02-28T12:51:31;102204.31;;;5.74;100.00
45275;BME280;31019;43.780;25.948;2023-02-28T12:54:06;102204.75;;;5.10;100.00
45275;BME280;31019;43.780;25.948;2023-02-28T12:56:43;102198.22;;;5.04;100.00
45275;BME280;31019;43.780;25.948;2023-02-28T12:59:17;102197.53;;;5.02;100.00